createdAt,value
2022-12-17T00:00:16.760Z,97842.28
2022-12-17T00:03:02.882Z,97846.97
2022-12-17T00:05:48.277Z,97847.81
2022-12-17T00:08:34.065Z,97840.16
2022-12-17T00:11:20.311Z,97859.75
2022-12-17T00:14:06.481Z,97856.25
2022-12-17T00:16:52.661Z,97859.78
2022-12-17T00:19:39.499Z,97852.03
2022-12-17T00:22:34.154Z,97859.03
2022-12-17T00:25:19.821Z,97878.19
2022-12-17T00:28:06.648Z,97879.44
2022-12-17T00:30:52.947Z,97892.75
2022-12-17T00:33:39.923Z,97883.84
2022-12-17T00:36:27.082Z,97885.00
2022-12-17T00:39:12.463Z,97892.81
2022-12-17T00:42:15.527Z,97895.19
2022-12-17T00:45:01.694Z,97892.81
2022-12-17T00:47:47.491Z,97892.44
2022-12-17T00:50:35.471Z,97905.34
2022-12-17T00:53:21.384Z,97904.56
2022-12-17T00:56:07.480Z,97900.66
2022-12-17T00:58:54.720Z,97911.59
2022-12-17T01:01:41.257Z,97911.19
2022-12-17T01:04:27.543Z,97920.59
2022-12-17T01:07:13.286Z,97922.59
2022-12-17T01:09:58.720Z,97925.34
2022-12-17T01:12:44.761Z,97931.25
2022-12-17T01:15:30.462Z,97936.75
2022-12-17T01:18:16.031Z,97941.03
2022-12-17T01:21:06.731Z,97940.69
2022-12-17T01:23:52.514Z,97942.25
2022-12-17T01:26:38.026Z,97944.19
2022-12-17T01:29:23.609Z,97950.84
2022-12-17T01:32:10.252Z,97953.94
2022-12-17T01:34:56.412Z,97945.34
2022-12-17T01:37:41.990Z,97957.84
2022-12-17T01:40:28.609Z,97959.38
2022-12-17T01:43:15.429Z,97960.94
2022-12-17T01:46:08.002Z,97959.38
2022-12-17T01:49:01.053Z,97967.94
2022-12-17T01:51:48.276Z,97978.09
2022-12-17T01:54:36.366Z,97981.22
2022-12-17T01:57:31.216Z,97975.00
2022-12-17T02:00:26.575Z,97980.06
2022-12-17T02:03:12.306Z,97984.75
2022-12-17T02:06:34.876Z,97984.78
2022-12-17T02:09:31.602Z,97986.34
2022-12-17T02:12:29.447Z,97988.28
2022-12-17T02:15:33.767Z,97998.81
2022-12-17T02:18:25.432Z,97998.03
2022-12-17T02:21:13.837Z,97998.44
2022-12-17T02:24:23.497Z,98001.19
2022-12-17T02:27:13.715Z,98003.91
2022-12-17T02:30:07.585Z,97996.88
2022-12-17T02:32:57.933Z,98005.06
2022-12-17T02:35:50.182Z,98016.38
2022-12-17T02:38:39.450Z,98003.91
2022-12-17T02:41:29.786Z,98004.69
2022-12-17T02:44:16.692Z,98001.53
2022-12-17T02:47:03.633Z,98003.09
2022-12-17T02:49:52.262Z,98004.69
2022-12-17T02:52:40.090Z,98006.25
2022-12-17T02:55:26.704Z,98016.75
2022-12-17T02:58:12.540Z,98016.38
2022-12-17T03:00:59.884Z,98015.59
2022-12-17T03:03:50.088Z,98010.91
2022-12-17T03:06:36.190Z,98017.94
2022-12-17T03:09:22.267Z,98031.97
2022-12-17T03:12:07.680Z,98028.06
2022-12-17T03:14:54.719Z,98021.06
2022-12-17T03:17:40.465Z,98026.50
2022-12-17T03:20:27.445Z,98035.47
2022-12-17T03:23:21.383Z,98040.56
2022-12-17T03:26:07.125Z,98039.38
2022-12-17T03:28:56.624Z,98047.19
2022-12-17T03:31:43.203Z,98045.25
2022-12-17T03:34:29.166Z,98053.03
2022-12-17T03:37:21.557Z,98056.13
2022-12-17T03:40:12.719Z,98064.69
2022-12-17T03:42:58.476Z,98057.31
2022-12-17T03:45:45.228Z,98060.03
2022-12-17T03:48:33.869Z,98066.28
2022-12-17T03:51:20.781Z,98065.44
2022-12-17T03:54:06.841Z,98068.16
2022-12-17T03:56:54.652Z,98061.56
2022-12-17T03:59:40.441Z,98067.78
2022-12-17T04:02:27.886Z,98067.78
2022-12-17T04:05:19.687Z,98067.78
2022-12-17T04:08:07.762Z,98075.56
2022-12-17T04:10:53.984Z,98081.81
2022-12-17T04:13:41.376Z,98078.28
2022-12-17T04:16:28.476Z,98082.56
2022-12-17T04:19:15.308Z,98077.06
2022-12-17T04:22:02.992Z,98082.88
2022-12-17T04:24:49.311Z,98080.97
2022-12-17T04:27:34.855Z,98090.28
2022-12-17T04:30:20.710Z,98101.97
2022-12-17T04:33:09.306Z,98107.84
2022-12-17T04:35:54.942Z,98103.59
2022-12-17T04:38:40.684Z,98105.91
2022-12-17T04:41:26.888Z,98117.63
2022-12-17T04:44:14.921Z,98120.75
2022-12-17T04:47:00.384Z,98122.28
2022-12-17T04:49:45.679Z,98119.19
2022-12-17T04:52:31.172Z,98115.69
2022-12-17T04:55:16.549Z,98114.53
2022-12-17T04:58:01.795Z,98118.41
2022-12-17T05:00:48.544Z,98119.97
2022-12-17T05:03:36.143Z,98120.75
2022-12-17T05:06:22.375Z,98128.94
2022-12-17T05:09:08.326Z,98129.72
2022-12-17T05:11:53.606Z,98135.19
2022-12-17T05:14:39.312Z,98138.69
2022-12-17T05:17:25.899Z,98142.16
2022-12-17T05:20:12.142Z,98145.69
2022-12-17T05:23:00.796Z,98151.91
2022-12-17T05:25:51.784Z,98144.09
2022-12-17T05:28:37.335Z,98164.75
2022-12-17T05:31:31.414Z,98169.06
2022-12-17T05:34:17.288Z,98167.50
2022-12-17T05:37:02.606Z,98168.25
2022-12-17T05:39:47.976Z,98172.91
2022-12-17T05:42:35.387Z,98168.97
2022-12-17T05:45:21.958Z,98168.97
2022-12-17T05:48:07.321Z,98186.13
2022-12-17T05:50:53.157Z,98172.13
2022-12-17T05:53:39.423Z,98179.88
2022-12-17T05:56:26.202Z,98174.41
2022-12-17T05:59:11.982Z,98180.59
2022-12-17T06:01:59.253Z,98192.28
2022-12-17T06:04:47.811Z,98191.50
2022-12-17T06:07:33.261Z,98193.06
2022-12-17T06:10:19.544Z,98196.19
2022-12-17T06:13:14.343Z,98205.91
2022-12-17T06:16:00.580Z,98196.13
2022-12-17T06:18:46.126Z,98197.63
2022-12-17T06:21:32.477Z,98205.06
2022-12-17T06:24:18.716Z,98217.94
2022-12-17T06:27:04.277Z,98219.50
2022-12-17T06:29:50.749Z,98225.75
2022-12-17T06:32:37.249Z,98220.22
2022-12-17T06:35:23.403Z,98229.59
2022-12-17T06:38:20.359Z,98229.94
2022-12-17T06:41:06.450Z,98238.16
2022-12-17T06:43:52.804Z,98242.88
2022-12-17T06:46:40.626Z,98244.03
2022-12-17T06:49:26.874Z,98255.31
2022-12-17T06:52:12.398Z,98257.66
2022-12-17T06:54:59.109Z,98259.13
2022-12-17T06:57:50.220Z,98254.78
2022-12-17T07:00:36.353Z,98266.41
2022-12-17T07:03:21.937Z,98266.38
2022-12-17T07:06:08.249Z,98280.00
2022-12-17T07:08:53.851Z,98273.72
2022-12-17T07:11:39.661Z,98283.78
2022-12-17T07:14:25.469Z,98280.63
2022-12-17T07:17:10.873Z,98276.63
2022-12-17T07:19:59.063Z,98282.81
2022-12-17T07:22:44.820Z,98290.19
2022-12-17T07:25:30.640Z,98296.03
2022-12-17T07:28:16.727Z,98298.34
2022-12-17T07:31:02.847Z,98303.00
2022-12-17T07:33:48.714Z,98310.84
2022-12-17T07:36:34.581Z,98317.91
2022-12-17T07:39:20.267Z,98321.84
2022-12-17T07:42:06.870Z,98338.25
2022-12-17T07:44:53.352Z,98337.88
2022-12-17T07:47:38.875Z,98343.41
2022-12-17T07:50:25.775Z,98340.72
2022-12-17T07:53:19.641Z,98347.81
2022-12-17T07:56:06.029Z,98347.09
2022-12-17T07:58:51.707Z,98351.81
2022-12-17T08:01:38.482Z,98353.41
2022-12-17T08:04:24.043Z,98361.22
2022-12-17T08:07:18.583Z,98374.53
2022-12-17T08:10:04.108Z,98373.31
2022-12-17T08:12:50.517Z,98376.84
2022-12-17T08:15:36.630Z,98374.53
2022-12-17T08:18:26.439Z,98393.97
2022-12-17T08:21:13.457Z,98383.44
2022-12-17T08:24:00.062Z,98389.00
2022-12-17T08:26:48.788Z,98398.84
2022-12-17T08:29:34.239Z,98396.59
2022-12-17T08:32:20.846Z,98402.94
2022-12-17T08:35:06.179Z,98395.59
2022-12-17T08:37:54.318Z,98403.09
2022-12-17T08:40:39.964Z,98396.53
2022-12-17T08:43:25.857Z,98400.16
2022-12-17T08:46:12.950Z,98403.34
2022-12-17T08:49:00.784Z,98401.47
2022-12-17T08:51:46.852Z,98405.81
2022-12-17T08:57:30.598Z,98405.13
2022-12-17T09:00:16.424Z,98394.25
2022-12-17T09:03:02.111Z,98401.31
2022-12-17T09:05:48.200Z,98400.56
2022-12-17T09:08:33.474Z,98407.59
2022-12-17T09:11:19.528Z,98399.81
2022-12-17T09:14:06.558Z,98417.03
2022-12-17T09:16:53.181Z,98417.03
2022-12-17T09:19:38.936Z,98424.50
2022-12-17T09:22:24.722Z,98418.63
2022-12-17T09:31:46.429Z,98420.19
2022-12-17T09:34:33.304Z,98420.22
2022-12-17T09:37:20.483Z,98425.66
2022-12-17T09:40:06.480Z,98422.50
2022-12-17T09:43:19.412Z,98424.06
2022-12-17T09:46:41.319Z,98424.84
2022-12-17T09:49:37.100Z,98433.47
2022-12-17T09:52:38.755Z,98424.06
2022-12-17T09:55:59.491Z,98427.19
2022-12-17T09:58:47.362Z,98431.88
2022-12-17T10:01:43.233Z,98426.00
2022-12-17T10:04:36.356Z,98436.56
2022-12-17T10:07:23.125Z,98440.06
2022-12-17T10:10:10.616Z,98430.28
2022-12-17T10:12:56.243Z,98431.44
2022-12-17T10:15:42.184Z,98437.34
2022-12-17T10:18:30.661Z,98433.38
2022-12-17T10:21:18.265Z,98440.41
2022-12-17T10:24:03.804Z,98436.91
2022-12-17T10:26:51.419Z,98440.78
2022-12-17T10:29:47.718Z,98438.03
2022-12-17T10:32:34.049Z,98441.16
2022-12-17T10:35:45.244Z,98441.91
2022-12-17T10:38:30.817Z,98439.19
2022-12-17T10:41:16.676Z,98442.69
2022-12-17T10:44:02.302Z,98438.34
2022-12-17T10:46:53.124Z,98437.56
2022-12-17T10:49:41.648Z,98452.81
2022-12-17T10:52:50.644Z,98444.09
2022-12-17T10:55:41.872Z,98457.91
2022-12-17T10:58:55.404Z,98454.13
2022-12-17T11:01:43.576Z,98458.84
2022-12-17T11:04:47.521Z,98460.97
2022-12-17T11:07:43.590Z,98466.41
2022-12-17T11:10:40.969Z,98459.59
2022-12-17T11:13:50.265Z,98466.38
2022-12-17T11:16:48.209Z,98466.63
2022-12-17T11:19:59.467Z,98467.22
2022-12-17T11:23:06.746Z,98467.97
2022-12-17T11:26:13.244Z,98475.00
2022-12-17T11:28:58.915Z,98461.22
2022-12-17T11:32:03.723Z,98466.00
2022-12-17T11:35:15.208Z,98460.00
2022-12-17T11:38:43.740Z,98471.53
2022-12-17T11:41:34.460Z,98469.94
2022-12-17T11:44:49.098Z,98472.34
2022-12-17T11:47:59.468Z,98468.44
2022-12-17T11:50:56.227Z,98469.28
2022-12-17T11:54:19.570Z,98464.66
2022-12-17T11:57:11.572Z,98461.50
2022-12-17T12:00:13.937Z,98466.56
2022-12-17T12:03:10.922Z,98464.81
2022-12-17T12:06:12.479Z,98463.44
2022-12-17T12:09:15.676Z,98459.91
2022-12-17T12:12:24.565Z,98461.94
2022-12-17T12:15:27.601Z,98465.59
2022-12-17T12:18:23.460Z,98463.00
2022-12-17T12:21:47.799Z,98455.66
2022-12-17T12:24:48.921Z,98456.47
2022-12-17T12:27:56.406Z,98463.84
2022-12-17T12:30:53.401Z,98469.59
2022-12-17T12:34:06.803Z,98470.38
2022-12-17T12:36:54.522Z,98462.75
2022-12-17T12:40:00.411Z,98469.81
2022-12-17T12:43:03.430Z,98459.41
2022-12-17T12:46:11.324Z,98468.03
2022-12-17T12:49:04.266Z,98467.66
2022-12-17T12:51:54.983Z,98471.81
2022-12-17T12:54:45.185Z,98481.41
2022-12-17T12:57:55.789Z,98475.50
2022-12-17T13:00:46.523Z,98475.59
2022-12-17T13:03:44.401Z,98470.63
2022-12-17T13:06:16.120Z,98478.84
2022-12-17T13:08:43.216Z,98469.66
2022-12-17T13:11:25.945Z,98470.34
2022-12-17T13:13:57.766Z,98480.13
2022-12-17T13:16:53.888Z,98480.97
2022-12-17T13:20:05.012Z,98489.72
2022-12-17T13:22:34.410Z,98485.97
2022-12-17T13:25:17.634Z,98491.03
2022-12-17T13:27:45.462Z,98497.25
2022-12-17T13:30:19.771Z,98490.53
2022-12-17T13:33:00.813Z,98495.84
2022-12-17T13:35:48.984Z,98497.31
2022-12-17T13:38:22.715Z,98505.66
2022-12-17T13:41:10.357Z,98503.19
2022-12-17T13:43:46.164Z,98498.22
2022-12-17T13:46:47.336Z,98496.63
2022-12-17T13:49:27.754Z,98508.81
2022-12-17T13:52:18.817Z,98517.22
2022-12-17T13:54:46.797Z,98519.84
2022-12-17T13:57:23.223Z,98523.13
2022-12-17T14:00:03.188Z,98515.44
2022-12-17T14:02:39.711Z,98532.78
2022-12-17T14:05:21.135Z,98527.72
2022-12-17T14:07:51.620Z,98532.44
2022-12-17T14:10:19.881Z,98550.72
2022-12-17T14:12:47.295Z,98546.69
2022-12-17T14:15:30.102Z,98547.09
2022-12-17T14:17:59.197Z,98548.91
2022-12-17T14:20:32.503Z,98545.25
2022-12-17T14:23:06.312Z,98558.50
2022-12-17T14:25:38.686Z,98565.00
2022-12-17T14:28:26.416Z,98565.16
2022-12-17T14:34:08.162Z,98582.84
2022-12-17T14:36:37.892Z,98576.09
2022-12-17T14:39:16.657Z,98579.97
2022-12-17T14:42:03.556Z,98585.75
2022-12-17T14:44:31.730Z,98583.16
2022-12-17T14:47:18.703Z,98595.53
2022-12-17T14:50:33.301Z,98592.47
2022-12-17T14:53:02.196Z,98594.16
2022-12-17T14:55:34.478Z,98600.97
2022-12-17T14:58:14.178Z,98593.63
2022-12-17T15:00:45.932Z,98593.69
2022-12-17T15:03:18.368Z,98593.66
2022-12-17T15:05:51.341Z,98604.22
2022-12-17T15:08:20.754Z,98599.00
2022-12-17T15:10:48.055Z,98599.19
2022-12-17T15:13:15.270Z,98602.53
2022-12-17T15:15:42.384Z,98601.50
2022-12-17T15:18:09.444Z,98593.91
2022-12-17T15:20:36.789Z,98591.63
2022-12-17T15:23:04.034Z,98595.03
2022-12-17T15:25:30.908Z,98601.09
2022-12-17T15:27:57.766Z,98609.25
2022-12-17T15:30:24.674Z,98616.78
2022-12-17T15:32:51.541Z,98624.72
2022-12-17T15:35:18.473Z,98617.34
2022-12-17T15:37:45.290Z,98631.63
2022-12-17T15:40:12.434Z,98629.34
2022-12-17T15:43:02.898Z,98629.47
2022-12-17T15:45:32.994Z,98625.63
2022-12-17T15:47:59.786Z,98624.50
2022-12-17T15:50:27.070Z,98617.06
2022-12-17T15:52:53.986Z,98629.34
2022-12-17T15:55:20.912Z,98628.19
2022-12-17T15:57:47.675Z,98625.09
2022-12-17T16:00:14.920Z,98626.66
2022-12-17T16:02:42.056Z,98625.16
2022-12-17T16:05:09.288Z,98614.69
2022-12-17T16:07:37.995Z,98619.84
2022-12-17T16:10:06.411Z,98629.34
2022-12-17T16:12:33.356Z,98632.53
2022-12-17T16:15:00.415Z,98621.19
2022-12-17T16:17:27.526Z,98635.75
2022-12-17T16:19:54.445Z,98630.28
2022-12-17T16:22:21.336Z,98636.25
2022-12-17T16:24:48.385Z,98641.00
2022-12-17T16:27:18.179Z,98640.66
2022-12-17T16:29:45.948Z,98640.66
2022-12-17T16:32:12.779Z,98645.41
2022-12-17T16:34:39.640Z,98650.53
2022-12-17T16:37:07.804Z,98647.06
2022-12-17T16:39:34.636Z,98652.56
2022-12-17T16:42:01.591Z,98649.47
2022-12-17T16:44:28.427Z,98646.38
2022-12-17T16:46:55.369Z,98649.09
2022-12-17T16:49:24.162Z,98647.19
2022-12-17T16:51:52.662Z,98652.69
2022-12-17T16:54:25.984Z,98650.72
2022-12-17T16:56:53.311Z,98660.50
2022-12-17T16:59:20.197Z,98655.41
2022-12-17T17:01:49.075Z,98659.75
2022-12-17T17:04:18.019Z,98665.25
2022-12-17T17:06:47.827Z,98658.97
2022-12-17T17:09:15.725Z,98672.31
2022-12-17T17:11:46.891Z,98658.97
2022-12-17T17:14:17.117Z,98656.63
2022-12-17T17:16:43.898Z,98662.91
2022-12-17T17:19:10.699Z,98671.13
2022-12-17T17:21:42.140Z,98668.41
2022-12-17T17:24:16.830Z,98668.41
2022-12-17T17:26:47.664Z,98679.34
2022-12-17T17:29:15.089Z,98674.66
2022-12-17T17:34:28.751Z,98676.22
2022-12-17T17:36:55.535Z,98680.13
2022-12-17T17:39:22.371Z,98683.63
2022-12-17T17:41:49.173Z,98676.53
2022-12-17T17:44:16.167Z,98696.50
2022-12-17T17:46:43.007Z,98697.25
2022-12-17T17:49:10.704Z,98703.09
2022-12-17T17:54:28.645Z,98706.63
2022-12-17T17:56:55.829Z,98698.75
2022-12-17T17:59:29.486Z,98701.13
2022-12-17T18:01:58.195Z,98712.88
2022-12-17T18:04:25.415Z,98705.03
2022-12-17T18:07:23.542Z,98717.59
2022-12-17T18:09:40.712Z,98723.78
2022-12-17T18:12:26.647Z,98730.78
2022-12-17T18:17:41.031Z,98726.09
2022-12-17T18:20:09.912Z,98728.06
2022-12-17T18:22:37.311Z,98733.16
2022-12-17T18:25:04.713Z,98733.53
2022-12-17T18:27:31.529Z,98733.50
2022-12-17T18:29:58.424Z,98734.66
2022-12-17T18:32:25.254Z,98726.44
2022-12-17T18:34:52.258Z,98741.63
2022-12-17T18:37:19.149Z,98740.00
2022-12-17T18:39:46.049Z,98738.38
2022-12-17T18:42:31.507Z,98749.28
2022-12-17T18:44:58.521Z,98754.75
2022-12-17T18:47:25.697Z,98754.72
2022-12-17T18:49:53.210Z,98752.38
2022-12-17T18:52:20.276Z,98754.75
2022-12-17T18:54:48.383Z,98764.09
2022-12-17T18:57:15.225Z,98765.28
2022-12-17T18:59:42.149Z,98763.28
2022-12-17T19:02:13.632Z,98761.69
2022-12-17T19:04:41.297Z,98760.91
2022-12-17T19:07:08.228Z,98766.38
2022-12-17T19:09:35.850Z,98763.16
2022-12-17T19:12:05.415Z,98773.22
2022-12-17T19:14:32.685Z,98766.91
2022-12-17T19:16:59.587Z,98772.75
2022-12-17T19:19:27.033Z,98774.72
2022-12-17T19:21:55.367Z,98771.63
2022-12-17T19:24:23.647Z,98771.63
2022-12-17T19:26:51.808Z,98768.53
2022-12-17T19:29:20.588Z,98775.50
2022-12-17T19:31:48.190Z,98785.53
2022-12-17T19:34:16.841Z,98787.44
2022-12-17T19:36:44.734Z,98781.91
2022-12-17T19:39:14.769Z,98774.38
2022-12-17T19:41:41.642Z,98778.94
2022-12-17T19:44:12.443Z,98774.25
2022-12-17T19:46:39.806Z,98771.13
2022-12-17T19:49:08.600Z,98781.69
2022-12-17T19:51:40.337Z,98770.75
2022-12-17T19:54:09.101Z,98781.25
2022-12-17T19:56:37.179Z,98781.69
2022-12-17T19:59:07.580Z,98782.84
2022-12-17T20:01:43.998Z,98781.22
2022-12-17T20:04:15.760Z,98771.72
2022-12-17T20:06:44.401Z,98788.81
2022-12-17T20:09:11.744Z,98780.94
2022-12-17T20:11:40.171Z,98772.00
2022-12-17T20:14:18.100Z,98780.22
2022-12-17T20:16:53.734Z,98789.31
2022-12-17T20:19:26.495Z,98794.78
2022-12-17T20:21:55.151Z,98787.59
2022-12-17T20:24:31.220Z,98786.28
2022-12-17T20:26:59.223Z,98791.25
2022-12-17T20:29:26.304Z,98786.06
2022-12-17T20:31:53.777Z,98796.16
2022-12-17T20:34:21.488Z,98796.13
2022-12-17T20:36:49.038Z,98787.59
2022-12-17T20:39:17.983Z,98786.84
2022-12-17T20:41:46.634Z,98785.31
2022-12-17T20:44:14.982Z,98793.91
2022-12-17T20:46:44.238Z,98777.13
2022-12-17T20:49:13.796Z,98790.84
2022-12-17T20:51:40.896Z,98793.25
2022-12-17T20:57:16.203Z,98793.16
2022-12-17T20:59:43.396Z,98798.84
2022-12-17T21:02:10.626Z,98810.38
2022-12-17T21:04:37.492Z,98803.66
2022-12-17T21:07:04.440Z,98803.53
2022-12-17T21:09:31.324Z,98805.03
2022-12-17T21:11:58.676Z,98810.41
2022-12-17T21:14:29.164Z,98809.97
2022-12-17T21:16:58.968Z,98818.19
2022-12-17T21:19:27.639Z,98814.72
2022-12-17T21:21:54.580Z,98810.50
2022-12-17T21:24:21.631Z,98809.69
2022-12-17T21:26:48.518Z,98816.00
2022-12-17T21:29:16.933Z,98828.50
2022-12-17T21:31:49.513Z,98842.13
2022-12-17T21:34:21.767Z,98835.47
2022-12-17T21:36:50.563Z,98841.00
2022-12-17T21:39:21.281Z,98840.22
2022-12-17T21:42:08.128Z,98833.97
2022-12-17T21:44:35.914Z,98834.31
2022-12-17T21:47:03.082Z,98833.88
2022-12-17T21:49:29.973Z,98848.56
2022-12-17T21:51:59.368Z,98847.66
2022-12-17T21:54:26.504Z,98840.56
2022-12-17T21:56:53.663Z,98851.47
2022-12-17T21:59:20.623Z,98855.31
2022-12-17T22:01:47.650Z,98859.13
2022-12-17T22:04:15.155Z,98855.53
2022-12-17T22:06:51.143Z,98869.22
2022-12-17T22:09:57.309Z,98867.00
2022-12-17T22:12:36.169Z,98860.00
2022-12-17T22:15:03.553Z,98857.28
2022-12-17T22:17:31.057Z,98864.56
2022-12-17T22:19:57.981Z,98866.09
2022-12-17T22:22:25.082Z,98856.69
2022-12-17T22:24:51.916Z,98863.22
2022-12-17T22:27:18.942Z,98865.84
2022-12-17T22:30:04.655Z,98866.56
2022-12-17T22:32:50.226Z,98868.97
2022-12-17T22:36:38.229Z,98877.66
2022-12-17T22:41:59.401Z,98876.16
2022-12-17T22:44:31.624Z,98893.38
2022-12-17T22:44:52.202Z,98884.38
2022-12-17T22:46:29.182Z,98881.66
2022-12-17T22:48:57.619Z,98889.84
2022-12-17T22:51:33.155Z,98884.34
2022-12-17T22:54:03.762Z,98892.06
2022-12-17T22:56:31.149Z,98885.84
2022-12-17T22:59:01.031Z,98901.03
2022-12-17T23:01:28.244Z,98901.84
2022-12-17T23:03:56.566Z,98902.97
2022-12-17T23:06:24.026Z,98906.84
2022-12-17T23:08:51.647Z,98908.66
2022-12-17T23:11:23.609Z,98909.63
2022-12-17T23:13:51.156Z,98907.19
2022-12-17T23:16:19.050Z,98903.59
2022-12-17T23:18:47.356Z,98920.66
2022-12-17T23:21:21.040Z,98916.72
2022-12-17T23:23:48.115Z,98919.66
2022-12-17T23:26:20.561Z,98917.22
2022-12-17T23:28:47.616Z,98937.00
2022-12-17T23:31:18.016Z,98909.91
2022-12-17T23:33:46.547Z,98900.25
2022-12-17T23:36:18.846Z,98901.91
2022-12-17T23:38:46.776Z,98914.72
2022-12-17T23:41:16.284Z,98901.16
2022-12-17T23:43:43.813Z,98904.69
2022-12-17T23:46:11.594Z,98912.91
2022-12-17T23:48:45.311Z,98901.22
2022-12-17T23:51:15.010Z,98909.06
2022-12-17T23:53:42.903Z,98900.88
2022-12-17T23:56:16.364Z,98897.31
2022-12-17T23:58:45.093Z,98915.81
